createdAt,value
2022-12-11T00:00:25.064Z,5.82
2022-12-11T00:02:51.849Z,5.82
2022-12-11T00:05:18.683Z,5.81
2022-12-11T00:07:45.511Z,5.83
2022-12-11T00:10:12.276Z,5.82
2022-12-11T00:12:38.967Z,5.81
2022-12-11T00:15:06.350Z,5.81
2022-12-11T00:17:33.041Z,5.80
2022-12-11T00:19:59.944Z,5.81
2022-12-11T00:22:26.636Z,5.82
2022-12-11T00:24:53.394Z,5.82
2022-12-11T00:27:21.225Z,5.82
2022-12-11T00:29:47.995Z,5.81
2022-12-11T00:32:14.803Z,5.79
2022-12-11T00:34:41.657Z,5.78
2022-12-11T00:37:08.418Z,5.76
2022-12-11T00:39:35.169Z,5.76
2022-12-11T00:42:01.882Z,5.75
2022-12-11T00:44:28.670Z,5.74
2022-12-11T00:46:55.461Z,5.73
2022-12-11T00:49:22.147Z,5.75
2022-12-11T00:51:48.977Z,5.74
2022-12-11T00:54:15.821Z,5.75
2022-12-11T00:56:43.468Z,5.77
2022-12-11T00:59:10.262Z,5.76
2022-12-11T01:01:37.077Z,5.77
2022-12-11T01:04:03.805Z,5.78
2022-12-11T01:06:30.519Z,5.79
2022-12-11T01:09:16.323Z,5.79
2022-12-11T01:11:43.563Z,5.76
2022-12-11T01:14:12.286Z,5.78
2022-12-11T01:16:39.263Z,5.77
2022-12-11T01:19:06.392Z,5.76
2022-12-11T01:21:33.309Z,5.78
2022-12-11T01:24:00.014Z,5.79
2022-12-11T01:26:30.694Z,5.78
2022-12-11T01:28:57.553Z,5.76
2022-12-11T01:31:24.302Z,5.77
2022-12-11T01:33:54.289Z,5.76
2022-12-11T01:36:22.734Z,5.76
2022-12-11T01:38:50.067Z,5.74
2022-12-11T01:41:18.630Z,5.75
2022-12-11T01:44:24.243Z,5.74
2022-12-11T01:46:51.287Z,5.70
2022-12-11T01:49:22.992Z,5.68
2022-12-11T01:52:09.499Z,5.67
2022-12-11T01:54:36.489Z,5.65
2022-12-11T01:57:08.456Z,5.64
2022-12-11T01:59:39.659Z,5.65
2022-12-11T02:02:14.996Z,5.68
2022-12-11T02:04:44.204Z,5.66
2022-12-11T02:07:11.049Z,5.67
2022-12-11T02:09:42.346Z,5.69
2022-12-11T02:12:48.436Z,5.68
2022-12-11T02:15:42.659Z,5.64
2022-12-11T02:18:48.624Z,5.62
2022-12-11T02:21:33.017Z,5.60
2022-12-11T02:24:11.838Z,5.59
2022-12-11T02:27:03.490Z,5.61
2022-12-11T02:29:38.284Z,5.62
2022-12-11T02:32:16.290Z,5.64
2022-12-11T02:35:03.533Z,5.63
2022-12-11T02:37:35.658Z,5.66
2022-12-11T02:40:06.539Z,5.67
2022-12-11T02:42:36.044Z,5.70
2022-12-11T02:45:06.563Z,5.68
2022-12-11T02:47:34.030Z,5.72
2022-12-11T02:50:06.523Z,5.72
2022-12-11T02:52:34.869Z,5.73
2022-12-11T02:55:03.855Z,5.74
2022-12-11T02:57:46.906Z,5.72
2022-12-11T03:00:16.578Z,5.72
2022-12-11T03:02:44.011Z,5.72
2022-12-11T03:05:13.437Z,5.72
2022-12-11T03:07:44.056Z,5.74
2022-12-11T03:10:15.321Z,5.73
2022-12-11T03:12:51.814Z,5.74
2022-12-11T03:15:30.173Z,5.72
2022-12-11T03:18:13.693Z,5.73
2022-12-11T03:21:03.893Z,5.71
2022-12-11T03:23:46.496Z,5.69
2022-12-11T03:26:18.785Z,5.69
2022-12-11T03:28:59.449Z,5.68
2022-12-11T03:31:43.656Z,5.69
2022-12-11T03:34:25.804Z,5.68
2022-12-11T03:36:56.084Z,5.67
2022-12-11T03:39:32.296Z,5.69
2022-12-11T03:42:04.597Z,5.70
2022-12-11T03:44:34.473Z,5.70
2022-12-11T03:47:04.452Z,5.74
2022-12-11T03:49:40.042Z,5.74
2022-12-11T03:52:10.061Z,5.76
2022-12-11T03:54:39.488Z,5.73
2022-12-11T03:57:09.415Z,5.76
2022-12-11T03:59:36.166Z,5.75
2022-12-11T04:02:10.600Z,5.75
2022-12-11T04:04:42.383Z,5.76
2022-12-11T04:07:09.739Z,5.76
2022-12-11T04:09:36.949Z,5.78
2022-12-11T04:12:03.833Z,5.80
2022-12-11T04:14:48.851Z,5.80
2022-12-11T04:17:35.641Z,5.79
2022-12-11T04:20:22.543Z,5.80
2022-12-11T04:23:07.718Z,5.78
2022-12-11T04:25:34.405Z,5.78
2022-12-11T04:28:01.160Z,5.78
2022-12-11T04:30:33.735Z,5.80
2022-12-11T04:33:01.437Z,5.80
2022-12-11T04:35:28.520Z,5.79
2022-12-11T04:37:55.623Z,5.82
2022-12-11T04:40:22.691Z,5.82
2022-12-11T04:42:49.495Z,5.82
2022-12-11T04:45:16.553Z,5.83
2022-12-11T04:47:43.286Z,5.83
2022-12-11T04:50:12.968Z,5.83
2022-12-11T04:52:39.898Z,5.84
2022-12-11T04:55:08.756Z,5.85
2022-12-11T04:57:35.840Z,5.83
2022-12-11T05:00:06.556Z,5.85
2022-12-11T05:02:38.879Z,5.86
2022-12-11T05:05:09.877Z,5.87
2022-12-11T05:07:37.926Z,5.88
2022-12-11T05:10:06.740Z,5.89
2022-12-11T05:12:33.788Z,5.90
2022-12-11T05:15:00.543Z,5.91
2022-12-11T05:17:27.324Z,5.90
2022-12-11T05:19:54.232Z,5.91
2022-12-11T05:22:20.964Z,5.93
2022-12-11T05:24:49.847Z,5.94
2022-12-11T05:27:16.579Z,5.93
2022-12-11T05:29:43.398Z,5.95
2022-12-11T05:32:10.241Z,5.96
2022-12-11T05:34:37.054Z,5.97
2022-12-11T05:37:03.969Z,5.96
2022-12-11T05:39:30.821Z,5.97
2022-12-11T05:41:57.837Z,5.98
2022-12-11T05:44:25.164Z,5.97
2022-12-11T05:46:51.968Z,5.97
2022-12-11T05:49:20.191Z,5.96
2022-12-11T05:51:47.541Z,5.96
2022-12-11T05:54:14.353Z,5.95
2022-12-11T05:56:41.244Z,5.92
2022-12-11T05:59:08.987Z,5.90
2022-12-11T06:01:39.672Z,5.87
2022-12-11T06:04:08.447Z,5.83
2022-12-11T06:06:36.137Z,5.80
2022-12-11T06:09:05.324Z,5.79
2022-12-11T06:11:34.128Z,5.78
2022-12-11T06:14:03.682Z,5.75
2022-12-11T06:16:30.896Z,5.74
2022-12-11T06:18:58.831Z,5.95
2022-12-11T06:21:31.893Z,6.06
2022-12-11T06:24:02.719Z,5.95
2022-12-11T06:26:31.890Z,5.86
2022-12-11T06:28:58.652Z,5.80
2022-12-11T06:31:28.398Z,5.75
2022-12-11T06:33:55.625Z,5.72
2022-12-11T06:36:24.345Z,5.67
2022-12-11T06:38:52.863Z,5.65
2022-12-11T06:41:19.590Z,5.60
2022-12-11T06:43:46.873Z,5.59
2022-12-11T06:46:17.371Z,5.58
2022-12-11T06:48:45.376Z,5.57
2022-12-11T06:51:22.210Z,5.57
2022-12-11T06:53:57.113Z,5.55
2022-12-11T06:56:24.964Z,5.54
2022-12-11T06:58:52.320Z,5.53
2022-12-11T07:01:27.387Z,5.54
2022-12-11T07:03:56.927Z,5.49
2022-12-11T07:06:25.904Z,5.49
2022-12-11T07:08:53.111Z,5.47
2022-12-11T07:11:21.570Z,5.48
2022-12-11T07:13:49.018Z,5.46
2022-12-11T07:16:17.757Z,5.46
2022-12-11T07:18:49.386Z,5.47
2022-12-11T07:21:16.356Z,5.47
2022-12-11T07:23:43.539Z,5.47
2022-12-11T07:26:16.843Z,5.47
2022-12-11T07:28:44.189Z,5.47
2022-12-11T07:31:18.952Z,5.46
2022-12-11T07:33:46.460Z,5.48
2022-12-11T07:36:15.431Z,5.49
2022-12-11T07:38:42.491Z,5.50
2022-12-11T07:41:13.447Z,5.53
2022-12-11T07:43:41.734Z,5.53
2022-12-11T07:46:13.993Z,5.55
2022-12-11T07:48:43.673Z,5.55
2022-12-11T07:51:26.373Z,5.56
2022-12-11T07:53:57.058Z,5.57
2022-12-11T07:56:24.124Z,5.57
2022-12-11T07:58:50.893Z,5.59
2022-12-11T08:01:26.313Z,5.60
2022-12-11T08:03:54.407Z,5.60
2022-12-11T08:06:30.088Z,5.60
2022-12-11T08:08:58.823Z,5.60
2022-12-11T08:11:27.165Z,5.63
2022-12-11T08:13:55.584Z,5.63
2022-12-11T08:16:23.102Z,5.65
2022-12-11T08:18:49.914Z,5.69
2022-12-11T08:21:28.330Z,5.74
2022-12-11T08:23:55.861Z,5.75
2022-12-11T08:26:28.168Z,5.81
2022-12-11T08:28:56.404Z,5.82
2022-12-11T08:31:24.598Z,5.87
2022-12-11T08:33:53.132Z,5.88
2022-12-11T08:36:21.971Z,5.93
2022-12-11T08:38:49.812Z,5.95
2022-12-11T08:41:24.123Z,6.00
2022-12-11T08:43:55.107Z,6.02
2022-12-11T08:46:25.517Z,6.05
2022-12-11T08:48:54.016Z,6.07
2022-12-11T08:51:24.970Z,6.08
2022-12-11T08:53:55.333Z,6.11
2022-12-11T08:56:23.675Z,6.11
2022-12-11T08:58:51.564Z,6.12
2022-12-11T09:01:26.298Z,6.14
2022-12-11T09:03:55.418Z,6.15
2022-12-11T09:06:25.745Z,6.19
2022-12-11T09:08:53.883Z,6.21
2022-12-11T09:11:25.731Z,6.24
2022-12-11T09:13:53.626Z,6.26
2022-12-11T09:16:24.502Z,6.27
2022-12-11T09:18:53.923Z,6.27
2022-12-11T09:21:24.504Z,6.30
2022-12-11T09:23:58.011Z,6.31
2022-12-11T09:26:26.129Z,6.32
2022-12-11T09:28:53.747Z,6.36
2022-12-11T09:31:30.083Z,6.39
2022-12-11T09:34:04.149Z,6.40
2022-12-11T09:36:31.299Z,6.42
2022-12-11T09:39:04.147Z,6.45
2022-12-11T09:41:46.613Z,6.46
2022-12-11T09:44:33.526Z,6.48
2022-12-11T09:47:01.576Z,6.50
2022-12-11T09:49:40.830Z,6.53
2022-12-11T09:52:34.177Z,6.56
2022-12-11T09:55:14.917Z,6.57
2022-12-11T09:58:11.587Z,6.60
2022-12-11T10:01:12.655Z,6.64
2022-12-11T10:04:00.788Z,6.66
2022-12-11T10:07:02.283Z,6.69
2022-12-11T10:09:43.369Z,6.68
2022-12-11T10:12:21.799Z,6.72
2022-12-11T10:15:19.014Z,6.77
2022-12-11T10:17:47.137Z,6.83
2022-12-11T10:20:33.576Z,6.98
2022-12-11T10:23:01.378Z,7.10
2022-12-11T10:25:39.856Z,7.25
2022-12-11T10:28:19.349Z,7.40
2022-12-11T10:31:20.069Z,7.56
2022-12-11T10:34:02.060Z,7.64
2022-12-11T10:36:35.096Z,7.74
2022-12-11T10:39:02.683Z,7.80
2022-12-11T10:41:42.443Z,7.84
2022-12-11T10:44:29.906Z,7.88
2022-12-11T10:47:17.879Z,7.93
2022-12-11T10:49:58.313Z,7.97
2022-12-11T10:52:39.002Z,8.01
2022-12-11T10:55:24.375Z,8.03
2022-12-11T10:58:01.681Z,8.08
2022-12-11T11:00:39.170Z,8.12
2022-12-11T11:03:22.170Z,8.20
2022-12-11T11:05:50.634Z,8.32
2022-12-11T11:08:25.010Z,8.42
2022-12-11T11:10:53.137Z,8.58
2022-12-11T11:13:24.144Z,8.73
2022-12-11T11:16:13.477Z,8.92
2022-12-11T11:18:43.391Z,9.07
2022-12-11T11:21:23.369Z,9.25
2022-12-11T11:23:53.589Z,9.55
2022-12-11T11:26:38.289Z,9.97
2022-12-11T11:29:32.008Z,10.54
2022-12-11T11:32:17.225Z,11.10
2022-12-11T11:34:44.029Z,11.59
2022-12-11T11:37:31.660Z,11.99
2022-12-11T11:40:13.170Z,12.27
2022-12-11T11:42:49.305Z,12.45
2022-12-11T11:45:53.602Z,12.53
2022-12-11T11:48:58.633Z,12.40
2022-12-11T11:51:34.681Z,12.16
2022-12-11T11:54:20.756Z,11.87
2022-12-11T11:56:52.696Z,11.54
2022-12-11T11:59:36.304Z,11.20
2022-12-11T12:02:15.341Z,10.93
2022-12-11T12:04:43.271Z,10.65
2022-12-11T12:07:38.594Z,10.37
2022-12-11T12:11:23.627Z,10.01
2022-12-11T12:14:43.603Z,9.70
2022-12-11T12:17:18.256Z,9.50
2022-12-11T12:20:24.046Z,9.35
2022-12-11T12:23:32.006Z,9.20
2022-12-11T12:26:46.913Z,9.03
2022-12-11T12:29:31.847Z,8.91
2022-12-11T12:32:32.164Z,8.80
2022-12-11T12:35:17.681Z,8.72
2022-12-11T12:38:04.768Z,8.61
2022-12-11T12:41:16.856Z,8.54
2022-12-11T12:44:05.282Z,8.46
2022-12-11T12:47:05.176Z,8.45
2022-12-11T12:49:48.734Z,8.42
2022-12-11T12:52:31.585Z,8.38
2022-12-11T12:55:14.811Z,8.35
2022-12-11T12:58:00.950Z,8.28
2022-12-11T13:00:41.704Z,8.21
2022-12-11T13:03:20.915Z,8.12
2022-12-11T13:05:58.981Z,8.07
2022-12-11T13:08:37.135Z,8.02
2022-12-11T13:11:09.790Z,8.01
2022-12-11T13:13:48.969Z,7.98
2022-12-11T13:16:18.516Z,8.00
2022-12-11T13:18:48.187Z,8.01
2022-12-11T13:21:31.777Z,8.01
2022-12-11T13:24:30.258Z,7.98
2022-12-11T13:27:09.183Z,7.95
2022-12-11T13:29:42.188Z,7.92
2022-12-11T13:32:17.667Z,7.88
2022-12-11T13:34:56.808Z,7.82
2022-12-11T13:37:38.595Z,7.76
2022-12-11T13:40:22.258Z,7.75
2022-12-11T13:42:58.986Z,7.71
2022-12-11T13:45:46.444Z,7.71
2022-12-11T13:48:41.289Z,7.68
2022-12-11T13:51:08.036Z,7.65
2022-12-11T13:53:34.729Z,7.67
2022-12-11T13:56:07.995Z,7.69
2022-12-11T13:58:38.495Z,7.70
2022-12-11T14:01:12.246Z,7.73
2022-12-11T14:03:43.193Z,7.77
2022-12-11T14:06:18.324Z,7.79
2022-12-11T14:08:53.083Z,7.81
2022-12-11T14:11:31.001Z,7.82
2022-12-11T14:14:02.009Z,7.81
2022-12-11T14:16:30.331Z,7.81
2022-12-11T14:19:06.086Z,7.79
2022-12-11T14:21:33.633Z,7.79
2022-12-11T14:24:03.971Z,7.79
2022-12-11T14:26:34.606Z,7.78
2022-12-11T14:29:02.821Z,7.76
2022-12-11T14:31:40.908Z,7.75
2022-12-11T14:34:17.431Z,7.70
2022-12-11T14:36:46.399Z,7.66
2022-12-11T14:39:32.193Z,7.65
2022-12-11T14:42:14.885Z,7.60
2022-12-11T14:44:50.244Z,7.56
2022-12-11T14:47:23.269Z,7.52
2022-12-11T14:50:02.985Z,7.47
2022-12-11T14:52:58.568Z,7.42
2022-12-11T14:55:34.921Z,7.36
2022-12-11T14:58:16.517Z,7.33
2022-12-11T15:00:43.445Z,7.29
2022-12-11T15:03:10.448Z,7.27
2022-12-11T15:05:49.919Z,7.20
2022-12-11T15:08:25.415Z,7.16
2022-12-11T15:11:14.013Z,7.09
2022-12-11T15:14:11.900Z,7.04
2022-12-11T15:16:41.606Z,7.00
2022-12-11T15:19:22.910Z,6.95
2022-12-11T15:21:50.774Z,6.94
2022-12-11T15:24:47.010Z,6.93
2022-12-11T15:27:37.761Z,6.87
2022-12-11T15:30:15.809Z,6.84
2022-12-11T15:32:43.269Z,6.84
2022-12-11T15:35:28.308Z,6.83
2022-12-11T15:38:00.021Z,6.81
2022-12-11T15:40:27.747Z,6.80
2022-12-11T15:42:55.994Z,6.78
2022-12-11T15:45:28.349Z,6.79
2022-12-11T15:47:56.158Z,6.78
2022-12-11T15:50:29.076Z,6.76
2022-12-11T15:52:56.944Z,6.74
2022-12-11T15:55:27.218Z,6.72
2022-12-11T15:58:02.268Z,6.69
2022-12-11T16:00:29.361Z,6.66
2022-12-11T16:02:57.662Z,6.60
2022-12-11T16:05:25.692Z,6.54
2022-12-11T16:07:53.998Z,6.50
2022-12-11T16:10:22.624Z,6.41
2022-12-11T16:12:49.374Z,6.32
2022-12-11T16:15:21.623Z,6.24
2022-12-11T16:17:59.303Z,6.13
2022-12-11T16:20:26.060Z,6.06
2022-12-11T16:22:52.737Z,6.01
2022-12-11T16:25:19.473Z,5.93
2022-12-11T16:27:46.145Z,5.88
2022-12-11T16:30:13.995Z,5.82
2022-12-11T16:32:40.760Z,5.75
2022-12-11T16:35:07.700Z,5.68
2022-12-11T16:37:34.615Z,5.63
2022-12-11T16:40:01.368Z,5.56
2022-12-11T16:42:28.134Z,5.51
2022-12-11T16:44:54.830Z,5.45
2022-12-11T16:47:21.567Z,5.39
2022-12-11T16:49:48.244Z,5.32
2022-12-11T16:52:19.042Z,5.26
2022-12-11T16:54:48.823Z,5.19
2022-12-11T16:57:15.833Z,5.13
2022-12-11T16:59:43.436Z,5.09
2022-12-11T17:02:11.559Z,5.01
2022-12-11T17:04:39.331Z,4.99
2022-12-11T17:07:06.782Z,4.94
2022-12-11T17:09:33.884Z,4.90
2022-12-11T17:12:01.945Z,4.85
2022-12-11T17:14:28.729Z,4.81
2022-12-11T17:16:56.573Z,4.78
2022-12-11T17:19:23.683Z,4.75
2022-12-11T17:21:51.804Z,4.70
2022-12-11T17:24:18.723Z,4.65
2022-12-11T17:26:45.526Z,4.59
2022-12-11T17:29:13.515Z,4.56
2022-12-11T17:31:40.686Z,4.51
2022-12-11T17:34:07.813Z,4.47
2022-12-11T17:36:34.635Z,4.41
2022-12-11T17:39:01.518Z,4.38
2022-12-11T17:41:28.307Z,4.34
2022-12-11T17:43:56.017Z,4.31
2022-12-11T17:46:23.291Z,4.28
2022-12-11T17:48:50.121Z,4.28
2022-12-11T17:51:23.825Z,4.22
2022-12-11T17:53:52.549Z,4.15
2022-12-11T17:56:19.648Z,4.11
2022-12-11T17:58:46.459Z,4.09
2022-12-11T18:01:13.878Z,4.03
2022-12-11T18:03:41.673Z,4.01
2022-12-11T18:06:14.270Z,3.99
2022-12-11T18:08:42.305Z,3.95
2022-12-11T18:11:16.644Z,3.92
2022-12-11T18:13:44.634Z,3.90
2022-12-11T18:16:19.375Z,3.86
2022-12-11T18:18:48.267Z,3.85
2022-12-11T18:21:19.831Z,3.85
2022-12-11T18:23:46.792Z,3.82
2022-12-11T18:26:14.530Z,3.78
2022-12-11T18:28:42.062Z,3.74
2022-12-11T18:31:09.749Z,3.72
2022-12-11T18:33:42.857Z,3.69
2022-12-11T18:36:11.513Z,3.70
2022-12-11T18:38:38.714Z,3.68
2022-12-11T18:41:08.316Z,3.67
2022-12-11T18:43:37.576Z,3.67
2022-12-11T18:46:10.900Z,3.66
2022-12-11T18:48:38.373Z,3.66
2022-12-11T18:51:12.084Z,3.66
2022-12-11T18:53:39.524Z,3.66
2022-12-11T18:56:14.811Z,3.66
2022-12-11T18:58:41.817Z,3.66
2022-12-11T19:01:18.583Z,3.66
2022-12-11T19:03:45.902Z,3.67
2022-12-11T19:06:24.187Z,3.70
2022-12-11T19:08:51.888Z,3.73
2022-12-11T19:11:22.443Z,3.79
2022-12-11T19:13:51.189Z,3.82
2022-12-11T19:16:33.556Z,3.86
2022-12-11T19:19:09.823Z,3.89
2022-12-11T19:21:40.119Z,3.91
2022-12-11T19:24:11.541Z,3.95
2022-12-11T19:26:38.533Z,3.99
2022-12-11T19:29:05.355Z,4.03
2022-12-11T19:31:33.118Z,4.08
2022-12-11T19:34:01.003Z,4.07
2022-12-11T19:36:30.589Z,4.14
2022-12-11T19:39:01.527Z,4.17
2022-12-11T19:41:30.979Z,4.20
2022-12-11T19:43:59.917Z,4.23
2022-12-11T19:46:29.081Z,4.27
2022-12-11T19:48:58.487Z,4.29
2022-12-11T19:51:33.690Z,4.30
2022-12-11T19:54:04.096Z,4.32
2022-12-11T19:56:32.193Z,4.32
2022-12-11T19:59:01.838Z,4.32
2022-12-11T20:01:32.300Z,4.32
2022-12-11T20:04:05.938Z,4.31
2022-12-11T20:06:37.018Z,4.33
2022-12-11T20:09:06.182Z,4.32
2022-12-11T20:11:34.030Z,4.32
2022-12-11T20:14:00.849Z,4.33
2022-12-11T20:16:53.696Z,4.29
2022-12-11T20:19:14.940Z,4.26
2022-12-11T20:21:42.291Z,4.24
2022-12-11T20:24:09.901Z,4.26
2022-12-11T20:26:38.085Z,4.25
2022-12-11T20:29:08.082Z,4.24
2022-12-11T20:31:36.816Z,4.26
2022-12-11T20:34:04.745Z,4.26
2022-12-11T20:36:31.767Z,4.27
2022-12-11T20:38:59.022Z,4.30
2022-12-11T20:41:27.549Z,4.29
2022-12-11T20:43:54.448Z,4.33
2022-12-11T20:46:25.192Z,4.36
2022-12-11T20:48:52.893Z,4.37
2022-12-11T20:51:25.700Z,4.39
2022-12-11T20:53:59.315Z,4.40
2022-12-11T20:56:30.326Z,4.41
2022-12-11T20:58:58.994Z,4.42
2022-12-11T21:01:30.190Z,4.45
2022-12-11T21:03:57.452Z,4.43
2022-12-11T21:06:31.852Z,4.44
2022-12-11T21:09:06.263Z,4.44
2022-12-11T21:11:33.134Z,4.43
2022-12-11T21:13:59.933Z,4.45
2022-12-11T21:16:27.894Z,4.46
2022-12-11T21:18:56.552Z,4.42
2022-12-11T21:21:23.683Z,4.46
2022-12-11T21:23:50.610Z,4.47
2022-12-11T21:26:17.776Z,4.46
2022-12-11T21:28:44.720Z,4.48
2022-12-11T21:31:16.654Z,4.47
2022-12-11T21:33:43.737Z,4.48
2022-12-11T21:36:13.544Z,4.45
2022-12-11T21:38:43.512Z,4.40
2022-12-11T21:41:17.186Z,4.35
2022-12-11T21:44:56.501Z,4.29
2022-12-11T21:46:32.891Z,4.21
2022-12-11T21:48:59.995Z,4.15
2022-12-11T21:51:36.832Z,4.14
2022-12-11T21:54:06.827Z,4.12
2022-12-11T21:56:34.168Z,4.12
2022-12-11T21:59:01.594Z,4.12
2022-12-11T22:01:34.914Z,4.12
2022-12-11T22:04:02.287Z,4.12
2022-12-11T22:06:29.023Z,4.10
2022-12-11T22:08:55.930Z,4.11
2022-12-11T22:11:27.648Z,4.11
2022-12-11T22:13:55.356Z,4.14
2022-12-11T22:16:22.634Z,4.18
2022-12-11T22:18:49.407Z,4.21
2022-12-11T22:21:17.034Z,4.26
2022-12-11T22:23:44.894Z,4.29
2022-12-11T22:26:19.755Z,4.33
2022-12-11T22:28:47.256Z,4.39
2022-12-11T22:31:19.657Z,4.42
2022-12-11T22:33:49.554Z,4.47
2022-12-11T22:36:18.786Z,4.49
2022-12-11T22:38:46.722Z,4.51
2022-12-11T22:41:23.513Z,4.54
2022-12-11T22:43:50.944Z,4.54
2022-12-11T22:46:21.052Z,4.56
2022-12-11T22:48:48.005Z,4.56
2022-12-11T22:51:15.499Z,4.55
2022-12-11T22:53:42.311Z,4.54
2022-12-11T22:56:12.992Z,4.54
2022-12-11T22:58:40.659Z,4.52
2022-12-11T23:01:14.762Z,4.53
2022-12-11T23:03:42.071Z,4.51
2022-12-11T23:06:13.762Z,4.49
2022-12-11T23:08:41.972Z,4.48
2022-12-11T23:11:11.567Z,4.48
2022-12-11T23:13:38.336Z,4.47
2022-12-11T23:16:05.520Z,4.44
2022-12-11T23:18:32.731Z,4.41
2022-12-11T23:20:59.774Z,4.38
2022-12-11T23:23:26.450Z,4.34
2022-12-11T23:25:53.240Z,4.30
2022-12-11T23:28:20.034Z,4.28
2022-12-11T23:30:47.065Z,4.23
2022-12-11T23:33:14.204Z,4.19
2022-12-11T23:35:41.038Z,4.13
2022-12-11T23:38:08.180Z,4.07
2022-12-11T23:40:35.462Z,4.01
2022-12-11T23:43:02.215Z,3.96
2022-12-11T23:45:29.067Z,3.89
2022-12-11T23:47:55.985Z,3.86
2022-12-11T23:50:22.776Z,3.81
2022-12-11T23:52:49.479Z,3.78
2022-12-11T23:55:16.256Z,3.74
2022-12-11T23:57:42.997Z,3.73
